This is the latest recevied weather packets stored in our database for station/object KC3ROS. If no packets are shown the sender has not sent any weather packets the latest 1 day(s).
| Time | Temp. | Humidity | Pressure | Rain* | Wind** | Luminosity | Snow |
|---|---|---|---|---|---|---|---|
| 1777992830 | 19.44° C | 63% | 1006.9 hPa | 0 mm | 0.89 m/s, 194° | 207 W/m² | - |
| 1777992528 | 19.44° C | 63% | 1006.8 hPa | 0 mm | 2.24 m/s, 216° | 176 W/m² | - |
| 1777992226 | 19.44° C | 63% | 1006.8 hPa | 0 mm | 1.79 m/s, 227° | 215 W/m² | - |
| 1777991923 | 19.44° C | 63% | 1006.9 hPa | 0 mm | 0.45 m/s, 136° | 321 W/m² | - |
| 1777991621 | 20° C | 63% | 1006.8 hPa | 0 mm | 1.79 m/s, 220° | 205 W/m² | - |
| 1777991317 | 20° C | 62% | 1007 hPa | 0 mm | 0 m/s | 202 W/m² | - |
| 1777991010 | 20° C | 64% | 1007 hPa | 0 mm | 0.89 m/s, 123° | 289 W/m² | - |
| 1777990707 | 20° C | 62% | 1007.1 hPa | 0 mm | 1.34 m/s, 209° | 374 W/m² | - |
| 1777990404 | 19.44° C | 65% | 1007.2 hPa | 0 mm | 0.89 m/s, 208° | 300 W/m² | - |
| 1777990101 | 19.44° C | 64% | 1007 hPa | 0 mm | 1.79 m/s, 129° | 239 W/m² | - |
| 1777989797 | 20° C | 63% | 1007.4 hPa | 0 mm | 1.34 m/s, 188° | 321 W/m² | - |
| 1777989494 | 20° C | 63% | 1007.3 hPa | 0 mm | 1.34 m/s, 200° | 317 W/m² | - |
| 1777989190 | 19.44° C | 64% | 1007.2 hPa | 0 mm | 0.89 m/s, 138° | 423 W/m² | - |
| 1777988887 | 19.44° C | 62% | 1007 hPa | 0 mm | 0.89 m/s, 179° | 271 W/m² | - |
| 1777988584 | 19.44° C | 63% | 1007.2 hPa | 0 mm | 1.34 m/s, 199° | 323 W/m² | - |
| 1777988280 | 19.44° C | 64% | 1007.6 hPa | 0 mm | 4.02 m/s, 288° | 235 W/m² | - |
| 1777987977 | 18.89° C | 67% | 1007.2 hPa | 0 mm | 0.45 m/s, 164° | 236 W/m² | - |
| 1777987673 | 18.89° C | 64% | 1007.3 hPa | 0 mm | 4.02 m/s, 219° | 198 W/m² | - |
| 1777987370 | 19.44° C | 64% | 1007.2 hPa | 0 mm | 4.92 m/s, 225° | 185 W/m² | - |
| 1777987067 | 19.44° C | 62% | 1007.2 hPa | 0 mm | 2.24 m/s, 280° | 247 W/m² | - |
| 1777986765 | 19.44° C | 65% | 1007.4 hPa | 0 mm | 0.89 m/s, 92° | 387 W/m² | - |
| 1777986462 | 19.44° C | 64% | 1007.3 hPa | 0 mm | 1.34 m/s, 189° | 399 W/m² | - |
| 1777986160 | 19.44° C | 64% | 1007.1 hPa | 0 mm | 1.34 m/s, 94° | 415 W/m² | - |
| 1777985857 | 18.89° C | 63% | 1007.4 hPa | 0 mm | 1.34 m/s, 190° | 469 W/m² | - |
| 1777985554 | 18.89° C | 66% | 1007.3 hPa | 0 mm | 1.34 m/s, 142° | 238 W/m² | - |
* Rain latest hour (hover to see other rain measurements)
** Current wind speed in m/s (hover to see current wind gust speed)